Time;durP1;ratioP1;P1;durP2;ratioP2;P2;SDS_P1;SDS_P2;PMS_P1;PMS_P2;Temp;Humidity;BMP_temperature;BMP_pressure;BME280_temperature;BME280_humidity;BME280_pressure;Samples;Min_cycle;Max_cycle;Signal;HPM_P1;HPM_P2
2021/06/27 00:01:24;;;;;;;27.88;17.23;;;;;;;21.53;70.97;99544.31;5046082;28;20067;-76
2021/06/27 00:04:13;;;;;;;24.17;15.88;;;;;;;21.52;71.42;99543.47;5049625;28;20095;-75
2021/06/27 00:06:39;;;;;;;26.23;15.80;;;;;;;21.55;71.56;99552.16;5055399;28;20073;-79
2021/06/27 00:09:05;;;;;;;30.48;16.85;;;;;;;21.42;71.49;99533.50;5037376;28;20041;-77
2021/06/27 00:11:31;;;;;;;23.50;14.77;;;;;;;21.45;71.48;99541.28;5050852;28;20516;-78
2021/06/27 00:13:57;;;;;;;29.42;16.30;;;;;;;21.50;71.56;99550.63;5041221;28;20048;-76
2021/06/27 00:16:23;;;;;;;29.13;16.40;;;;;;;21.44;71.72;99537.75;5030699;28;20041;-77
2021/06/27 00:18:50;;;;;;;25.88;16.85;;;;;;;21.50;71.82;99550.63;5023189;28;20048;-77
2021/06/27 00:21:16;;;;;;;31.40;16.30;;;;;;;21.47;71.68;99548.16;5021397;28;20092;-79
2021/06/27 00:23:46;;;;;;;25.40;15.98;;;;;;;21.47;71.92;99547.34;5016947;28;20045;-77
2021/06/27 00:26:15;;;;;;;26.17;16.52;;;;;;;21.44;71.65;99544.84;5016945;28;20136;-77
2021/06/27 00:28:41;;;;;;;28.67;16.70;;;;;;;21.42;72.03;99546.75;5016532;28;20054;-76
2021/06/27 00:31:08;;;;;;;30.05;16.23;;;;;;;21.42;71.95;99546.75;5014732;28;20049;-76
2021/06/27 00:33:34;;;;;;;26.30;17.17;;;;;;;21.31;71.55;99529.69;5015485;28;20038;-78
2021/06/27 00:36:00;;;;;;;26.58;16.10;;;;;;;21.39;72.10;99538.97;5016822;28;20394;-79
2021/06/27 00:38:26;;;;;;;28.52;16.85;;;;;;;21.26;71.85;99521.19;5016592;28;20501;-78
2021/06/27 00:40:53;;;;;;;26.23;16.42;;;;;;;21.32;71.87;99541.97;5015262;28;20164;-77
2021/06/27 00:43:19;;;;;;;24.33;16.67;;;;;;;21.32;72.14;99546.44;5015758;28;20046;-77
2021/06/27 00:45:46;;;;;;;28.02;17.10;;;;;;;21.28;72.18;99539.59;5014771;28;20050;-78
2021/06/27 00:48:12;;;;;;;28.17;17.38;;;;;;;21.16;72.00;99533.22;5026396;28;20048;-80
2021/06/27 00:50:44;;;;;;;32.85;16.55;;;;;;;21.15;72.28;99542.09;4999796;28;20071;-78
2021/06/27 00:53:11;;;;;;;23.73;16.35;;;;;;;21.10;72.53;99526.50;5015638;28;20057;-76
2021/06/27 00:55:38;;;;;;;25.45;16.67;;;;;;;21.11;72.53;99535.25;5016075;28;20532;-78
2021/06/27 00:58:05;;;;;;;27.35;17.65;;;;;;;21.12;72.71;99542.25;5034875;28;20120;-79
2021/06/27 01:00:33;;;;;;;29.45;16.20;;;;;;;21.12;72.98;99542.25;5034960;28;20041;-76
2021/06/27 01:02:59;;;;;;;27.13;16.63;;;;;;;21.11;72.92;99543.19;5033810;28;20517;-77
2021/06/27 01:05:28;;;;;;;25.05;16.20;;;;;;;21.09;72.81;99539.78;5017099;28;20042;-77
2021/06/27 01:07:55;;;;;;;25.85;16.10;;;;;;;20.96;73.15;99532.56;5033852;28;20074;-78
2021/06/27 01:10:22;;;;;;;24.42;16.23;;;;;;;21.07;73.07;99555.75;5034814;28;20644;-77
2021/06/27 01:12:47;;;;;;;20.42;15.93;;;;;;;21.06;73.25;99551.41;5035100;28;20052;-80
2021/06/27 01:15:14;;;;;;;28.77;17.48;;;;;;;20.91;73.17;99526.66;5014208;28;20505;-77
2021/06/27 01:17:43;;;;;;;29.38;17.27;;;;;;;21.07;73.59;99547.81;5013992;28;20452;-76
2021/06/27 01:20:12;;;;;;;23.00;17.13;;;;;;;21.11;73.72;99554.66;4998981;28;20037;-78
2021/06/27 01:22:39;;;;;;;23.17;15.95;;;;;;;21.15;73.60;99548.25;5017158;28;20050;-78
2021/06/27 01:25:07;;;;;;;22.40;15.75;;;;;;;21.17;73.61;99537.56;5014428;28;20489;-78
2021/06/27 01:27:33;;;;;;;23.17;15.50;;;;;;;21.16;73.52;99542.03;5015065;28;20057;-77
2021/06/27 01:30:00;;;;;;;22.95;15.60;;;;;;;21.19;73.70;99535.69;5015580;28;20505;-78
2021/06/27 01:32:26;;;;;;;22.90;15.88;;;;;;;21.19;73.46;99541.81;5003051;28;20042;-77
2021/06/27 01:34:52;;;;;;;23.90;14.75;;;;;;;21.27;73.35;99541.41;5034979;28;20116;-79
2021/06/27 01:37:18;;;;;;;22.88;15.65;;;;;;;21.30;73.07;99535.06;5003183;28;20571;-78
2021/06/27 01:39:44;;;;;;;25.35;16.17;;;;;;;21.44;72.90;99550.16;5035355;28;20079;-79
2021/06/27 01:42:10;;;;;;;25.95;14.32;;;;;;;21.46;73.19;99551.75;5003236;28;20073;-76
2021/06/27 01:44:37;;;;;;;19.55;14.95;;;;;;;21.36;72.55;99522.34;5019222;28;20046;-78
2021/06/27 01:47:03;;;;;;;22.08;15.45;;;;;;;21.47;72.81;99534.09;5018677;28;20072;-78
2021/06/27 01:49:29;;;;;;;24.38;16.00;;;;;;;21.62;72.55;99546.47;5019983;28;20496;-78
2021/06/27 01:51:55;;;;;;;31.92;17.42;;;;;;;21.69;72.41;99551.41;5036878;28;20057;-78
2021/06/27 01:54:21;;;;;;;20.33;14.82;;;;;;;21.75;72.27;99543.94;5039792;28;20487;-76
2021/06/27 01:56:47;;;;;;;27.00;15.93;;;;;;;21.70;72.07;99521.34;5044982;28;20060;-77
2021/06/27 01:59:13;;;;;;;25.85;16.30;;;;;;;21.88;71.96;99538.75;5050193;28;20052;-77
2021/06/27 02:01:41;;;;;;;25.52;17.10;;;;;;;21.95;71.85;99541.88;5049358;28;20106;-76
2021/06/27 02:04:09;;;;;;;25.60;15.30;;;;;;;22.04;71.46;99541.34;5036343;28;20164;-77
2021/06/27 02:06:38;;;;;;;27.10;16.33;;;;;;;22.12;71.55;99538.22;5037265;28;20045;-77
2021/06/27 02:09:07;;;;;;;24.13;15.95;;;;;;;22.19;71.41;99536.88;5033237;28;20437;-78
2021/06/27 02:11:34;;;;;;;23.90;16.55;;;;;;;22.29;71.13;99538.97;5040401;28;20060;-78
2021/06/27 02:14:00;;;;;;;34.63;17.75;;;;;;;22.33;71.11;99527.25;5029373;28;20040;-78
2021/06/27 02:16:27;;;;;;;29.42;17.52;;;;;;;22.41;71.02;99535.53;5037309;28;20049;-76
2021/06/27 02:18:54;;;;;;;30.17;17.10;;;;;;;22.43;70.45;99515.13;5036685;28;20053;-77
2021/06/27 02:21:24;;;;;;;24.88;16.27;;;;;;;22.53;70.51;99521.56;5045809;28;20049;-77
2021/06/27 02:23:50;;;;;;;24.98;16.08;;;;;;;22.53;70.22;99508.31;5036447;28;20093;-79
2021/06/27 02:26:18;;;;;;;24.88;16.80;;;;;;;22.58;70.13;99512.47;5037217;28;20061;-78
2021/06/27 02:28:44;;;;;;;25.13;16.70;;;;;;;22.75;70.57;99525.50;5020042;28;20038;-78
2021/06/27 02:31:11;;;;;;;26.65;16.42;;;;;;;22.86;70.29;99530.94;5003201;28;20034;-78
2021/06/27 02:33:38;;;;;;;22.92;16.02;;;;;;;22.83;69.92;99514.41;5035955;28;20034;-78
2021/06/27 02:36:05;;;;;;;26.45;17.55;;;;;;;23.07;69.85;99541.13;5034922;28;20029;-77
2021/06/27 02:38:31;;;;;;;26.52;17.85;;;;;;;23.20;69.79;99533.22;5018936;28;20051;-78
2021/06/27 02:40:57;;;;;;;20.50;16.77;;;;;;;23.28;70.08;99538.91;5034639;28;20045;-77
2021/06/27 02:43:24;;;;;;;26.48;16.58;;;;;;;23.40;69.79;99533.72;5032646;28;20038;-78
2021/06/27 02:45:50;;;;;;;24.30;16.60;;;;;;;23.57;69.30;99540.56;5001686;28;20502;-78
2021/06/27 02:48:16;;;;;;;28.42;16.95;;;;;;;23.71;69.10;99543.16;5007999;28;20087;-79
2021/06/27 02:50:43;;;;;;;25.40;17.33;;;;;;;23.72;69.08;99531.53;5032365;28;20053;-79
2021/06/27 02:53:10;;;;;;;25.85;18.60;;;;;;;23.81;68.80;99526.56;5032292;28;20060;-78
2021/06/27 02:55:36;;;;;;;25.55;18.02;;;;;;;24.04;68.67;99544.47;5032944;28;20063;-79
2021/06/27 02:58:02;;;;;;;25.15;19.42;;;;;;;24.16;68.22;99545.41;5032428;28;20079;-78
2021/06/27 03:00:29;;;;;;;27.92;20.92;;;;;;;24.32;67.90;99542.53;5015103;28;20053;-77
2021/06/27 03:02:56;;;;;;;24.77;19.30;;;;;;;24.48;67.88;99541.44;5031415;28;20425;-77
2021/06/27 03:05:22;;;;;;;25.90;20.13;;;;;;;24.58;67.42;99538.97;5015066;28;20044;-77
2021/06/27 03:07:48;;;;;;;26.30;20.38;;;;;;;24.73;67.16;99537.06;5032874;28;20037;-79
2021/06/27 03:10:17;;;;;;;31.35;20.67;;;;;;;24.75;66.69;99521.84;5031509;28;20091;-77
2021/06/27 03:12:45;;;;;;;28.35;20.10;;;;;;;24.80;66.43;99522.38;5033890;28;20099;-78
2021/06/27 03:15:14;;;;;;;29.52;19.85;;;;;;;25.06;66.05;99540.88;5017027;28;20037;-78
2021/06/27 03:17:41;;;;;;;36.25;20.67;;;;;;;25.19;65.82;99535.50;5011453;28;20077;-78
2021/06/27 03:20:09;;;;;;;28.55;19.20;;;;;;;25.32;65.34;99538.09;5012908;28;20046;-77
2021/06/27 03:22:35;;;;;;;26.67;18.80;;;;;;;25.39;65.28;99532.19;5011527;28;20056;-79
2021/06/27 03:25:01;;;;;;;33.33;18.55;;;;;;;25.63;65.02;99535.81;5012927;28;20089;-78
2021/06/27 03:27:28;;;;;;;31.02;19.17;;;;;;;25.75;64.39;99521.53;5012826;28;20044;-78
2021/06/27 03:29:54;;;;;;;30.58;19.88;;;;;;;25.91;64.57;99534.53;5010496;28;20136;-77
2021/06/27 03:32:19;;;;;;;27.65;19.20;;;;;;;26.05;64.37;99533.47;5012566;28;20042;-79
2021/06/27 03:34:45;;;;;;;27.15;20.02;;;;;;;26.15;64.01;99534.44;5012727;28;20588;-76
2021/06/27 03:37:11;;;;;;;30.52;20.05;;;;;;;26.28;64.06;99533.50;5011038;28;20510;-77
2021/06/27 03:39:37;;;;;;;38.80;23.67;;;;;;;26.42;63.62;99529.75;5027544;28;20084;-77
2021/06/27 03:42:05;;;;;;;35.00;25.23;;;;;;;26.60;62.54;99530.94;5011766;28;20116;-77
2021/06/27 03:44:31;;;;;;;37.20;24.15;;;;;;;26.68;62.25;99521.47;5011578;28;20042;-77
2021/06/27 03:46:57;;;;;;;39.13;24.90;;;;;;;26.84;61.95;99519.28;5012357;28;20038;-78
2021/06/27 03:49:23;;;;;;;38.58;24.60;;;;;;;27.10;61.13;99532.31;5043749;28;20195;-79
2021/06/27 03:51:49;;;;;;;37.67;25.45;;;;;;;27.11;61.17;99506.44;5011641;28;20072;-80
2021/06/27 03:54:16;;;;;;;39.00;24.75;;;;;;;27.35;60.54;99515.06;5011237;28;20038;-77
2021/06/27 03:56:43;;;;;;;34.60;23.90;;;;;;;27.61;60.02;99525.44;5012488;28;20034;-78
2021/06/27 03:59:09;;;;;;;37.58;24.35;;;;;;;27.77;59.57;99521.44;5009939;28;20432;-77
2021/06/27 04:01:35;;;;;;;35.80;24.33;;;;;;;27.93;58.58;99518.28;5031856;28;20103;-77
2021/06/27 04:04:02;;;;;;;45.90;26.08;;;;;;;27.97;58.06;99519.72;5030480;28;20045;-78
2021/06/27 04:06:29;;;;;;;34.25;22.13;;;;;;;28.19;58.16;99525.91;5031696;28;20034;-76
2021/06/27 04:08:55;;;;;;;34.72;21.90;;;;;;;28.42;57.72;99526.56;5031278;28;20049;-78
2021/06/27 04:11:21;;;;;;;35.15;22.70;;;;;;;28.64;56.84;99525.50;4998259;28;20060;-75
2021/06/27 04:13:47;;;;;;;35.15;23.75;;;;;;;28.70;56.02;99518.75;5023934;28;20042;-75
2021/06/27 04:16:14;;;;;;;36.90;23.95;;;;;;;28.80;55.77;99519.63;5012636;28;20045;-75
2021/06/27 04:18:40;;;;;;;31.88;20.83;;;;;;;28.96;55.90;99526.28;5011452;28;20141;-78
2021/06/27 04:21:07;;;;;;;40.88;22.83;;;;;;;29.16;55.88;99525.31;5010488;28;20413;-78
2021/06/27 04:23:35;;;;;;;32.20;21.23;;;;;;;29.34;55.11;99508.53;4994088;28;20042;-78
2021/06/27 04:26:01;;;;;;;30.92;20.25;;;;;;;29.46;54.29;99506.59;5011704;28;20037;-76
2021/06/27 04:28:27;;;;;;;31.83;21.70;;;;;;;29.69;53.47;99520.50;4994407;28;20076;-77
2021/06/27 04:30:53;;;;;;;28.05;18.75;;;;;;;29.87;53.20;99525.97;5014973;28;20506;-77
2021/06/27 04:33:19;;;;;;;32.80;19.95;;;;;;;30.01;52.16;99523.84;5013559;28;20095;-76
2021/06/27 04:35:45;;;;;;;36.55;20.20;;;;;;;30.07;51.56;99512.53;5015204;28;20042;-76
2021/06/27 04:38:16;;;;;;;26.63;18.58;;;;;;;30.13;51.03;99505.72;5015892;28;20045;-78
2021/06/27 04:40:41;;;;;;;28.25;18.00;;;;;;;30.35;50.58;99523.28;5013876;28;20065;-79
2021/06/27 04:43:07;;;;;;;38.45;20.08;;;;;;;30.51;49.42;99525.31;5015259;28;20077;-77
2021/06/27 04:45:36;;;;;;;29.70;18.08;;;;;;;30.48;49.61;99496.09;5014937;28;20532;-77
2021/06/27 04:48:04;;;;;;;25.58;18.45;;;;;;;30.73;48.43;99517.88;5021916;28;20073;-78
2021/06/27 04:50:30;;;;;;;31.17;21.10;;;;;;;30.82;47.94;99508.91;5033251;28;20056;-79
2021/06/27 04:52:57;;;;;;;29.85;21.27;;;;;;;30.93;47.80;99519.44;5016741;28;20060;-77
2021/06/27 04:55:23;;;;;;;32.42;23.95;;;;;;;31.00;47.70;99514.28;5034785;28;20094;-79
2021/06/27 04:57:49;;;;;;;24.45;19.00;;;;;;;30.82;47.54;99522.31;5015977;28;20045;-76
2021/06/27 05:00:16;;;;;;;20.48;16.73;;;;;;;30.59;48.24;99521.91;5034101;28;20068;-78
2021/06/27 05:02:41;;;;;;;16.70;13.73;;;;;;;30.41;48.19;99505.72;5033937;28;20098;-78
2021/06/27 05:05:08;;;;;;;18.48;13.75;;;;;;;30.43;48.09;99501.94;5031916;28;20038;-78
2021/06/27 05:07:34;;;;;;;15.80;13.32;;;;;;;30.49;47.85;99495.94;5033533;28;20041;-78
2021/06/27 05:10:01;;;;;;;16.35;13.65;;;;;;;30.62;47.64;99492.94;5032547;28;20037;-80
2021/06/27 05:12:31;;;;;;;17.10;12.60;;;;;;;30.85;47.18;99500.53;5035001;28;20053;-79
2021/06/27 05:14:57;;;;;;;15.70;12.98;;;;;;;30.92;46.90;99498.94;5016189;28;20045;-79
2021/06/27 05:17:24;;;;;;;17.48;12.65;;;;;;;31.14;45.85;99502.19;4997365;28;20132;-78
2021/06/27 05:19:50;;;;;;;15.65;11.85;;;;;;;31.28;46.25;99489.19;4996571;28;20179;-82
2021/06/27 05:22:16;;;;;;;15.80;13.30;;;;;;;31.47;45.15;99489.00;5014373;28;20164;-79
2021/06/27 05:24:41;;;;;;;16.35;12.02;;;;;;;31.55;44.96;99491.78;5014716;28;20034;-79
2021/06/27 05:27:08;;;;;;;13.90;11.48;;;;;;;31.66;44.94;99492.53;5012780;28;20041;-79
2021/06/27 05:29:34;;;;;;;13.65;11.23;;;;;;;31.82;44.43;99491.78;5012947;28;20132;-78
2021/06/27 05:32:01;;;;;;;14.63;11.90;;;;;;;31.91;43.80;99498.91;4996635;28;20049;-78
2021/06/27 05:34:29;;;;;;;16.13;12.15;;;;;;;31.84;43.83;99490.66;5014490;28;20033;-79
2021/06/27 05:36:56;;;;;;;17.50;11.48;;;;;;;32.00;43.77;99513.25;5014115;28;20046;-80
2021/06/27 05:39:23;;;;;;;14.07;11.73;;;;;;;31.91;44.10;99506.13;4996500;28;20037;-79
2021/06/27 05:41:50;;;;;;;15.85;11.55;;;;;;;31.77;44.16;99478.84;5012374;28;20041;-81
2021/06/27 05:44:16;;;;;;;13.43;11.48;;;;;;;32.11;44.69;99507.56;5012519;28;20073;-79
2021/06/27 05:46:42;;;;;;;17.67;11.60;;;;;;;32.34;43.94;99500.81;5014237;28;20110;-80
2021/06/27 05:49:08;;;;;;;16.73;11.48;;;;;;;32.67;43.15;99501.78;5030079;28;20045;-80
2021/06/27 05:51:40;;;;;;;12.32;10.55;;;;;;;32.68;43.03;99479.22;5031612;28;20578;-78
2021/06/27 05:54:08;;;;;;;12.70;10.90;;;;;;;33.19;42.40;99495.28;5015814;28;20476;-81
2021/06/27 05:56:34;;;;;;;11.43;10.18;;;;;;;34.08;40.69;99478.34;5032036;28;20065;-77
2021/06/27 05:59:00;;;;;;;13.90;9.75;;;;;;;35.56;40.20;99486.53;5015395;28;20068;-78
2021/06/27 06:01:26;;;;;;;12.48;10.18;;;;;;;37.12;36.80;99478.47;5015390;28;20045;-79
2021/06/27 06:03:52;;;;;;;14.30;9.60;;;;;;;38.56;34.76;99481.66;5032938;28;20063;-76
2021/06/27 06:06:18;;;;;;;10.82;9.40;;;;;;;39.78;33.03;99479.88;5015500;28;20055;-81
2021/06/27 06:08:49;;;;;;;10.05;9.05;;;;;;;40.48;30.59;99458.25;5000285;28;20037;-80
2021/06/27 06:11:22;;;;;;;13.48;9.25;;;;;;;40.99;30.04;99471.16;5016706;28;20064;-80
2021/06/27 06:13:48;;;;;;;12.13;9.50;;;;;;;41.41;28.73;99477.72;4992665;28;20034;-79
2021/06/27 06:16:14;;;;;;;11.10;9.98;;;;;;;41.74;28.33;99458.53;5013869;28;20133;-81
2021/06/27 06:18:43;;;;;;;11.38;10.07;;;;;;;42.60;27.12;99463.97;4996806;28;20069;-80
2021/06/27 06:21:09;;;;;;;11.23;8.82;;;;;;;43.16;26.80;99458.28;5014478;28;20041;-79
2021/06/27 06:23:36;;;;;;;9.73;8.73;;;;;;;43.78;25.58;99460.56;5012649;28;20148;-79
2021/06/27 06:26:02;;;;;;;11.32;8.70;;;;;;;43.84;24.98;99471.59;4995645;28;20188;-79
2021/06/27 06:28:27;;;;;;;11.93;8.98;;;;;;;43.54;23.71;99462.47;5012288;28;20046;-78
2021/06/27 06:30:53;;;;;;;11.80;8.52;;;;;;;43.69;24.16;99462.00;5013743;28;20044;-79
2021/06/27 06:33:20;;;;;;;9.52;8.63;;;;;;;43.75;22.79;99476.63;5012613;28;20537;-79
2021/06/27 06:35:47;;;;;;;12.95;7.65;;;;;;;44.07;23.10;99468.03;5014021;28;20108;-80
2021/06/27 06:38:13;;;;;;;9.35;8.10;;;;;;;44.44;22.45;99461.31;5012729;28;20064;-77
2021/06/27 06:40:39;;;;;;;9.80;7.63;;;;;;;44.48;22.61;99466.09;5013451;28;20501;-81
2021/06/27 06:43:06;;;;;;;12.55;8.98;;;;;;;45.69;21.42;99454.03;5024849;28;20464;-79
2021/06/27 06:45:33;;;;;;;9.55;8.60;;;;;;;46.50;20.47;99462.69;5019567;28;20053;-79
2021/06/27 06:47:59;;;;;;;11.63;8.82;;;;;;;46.62;20.49;99461.44;5021925;28;20081;-81
2021/06/27 06:50:26;;;;;;;10.32;7.32;;;;;;;46.84;20.14;99445.97;4999743;28;20033;-78
2021/06/27 06:52:52;;;;;;;9.43;8.35;;;;;;;46.82;19.71;99461.91;5031318;28;20116;-81
2021/06/27 06:55:22;;;;;;;9.10;8.20;;;;;;;47.09;19.26;99477.53;5031057;28;20079;-77
2021/06/27 06:57:50;;;;;;;10.18;8.15;;;;;;;46.79;19.26;99479.72;5032871;28;20139;-80
2021/06/27 07:00:19;;;;;;;9.45;8.45;;;;;;;46.60;19.84;99473.78;5032473;28;20046;-81
2021/06/27 07:02:45;;;;;;;9.03;8.17;;;;;;;47.00;18.99;99460.69;5033657;28;20037;-83
2021/06/27 07:05:11;;;;;;;11.27;8.82;;;;;;;46.28;19.75;99466.28;5033042;28;20049;-80
2021/06/27 07:07:37;;;;;;;8.45;7.60;;;;;;;46.28;20.13;99471.78;5031667;28;20148;-81
2021/06/27 07:10:05;;;;;;;9.20;8.02;;;;;;;46.31;19.25;99457.53;5015650;28;20049;-79
2021/06/27 07:12:31;;;;;;;8.70;7.80;;;;;;;46.97;19.77;99462.03;5015530;28;20037;-79
2021/06/27 07:14:58;;;;;;;8.18;7.38;;;;;;;47.17;18.48;99449.50;5018352;28;20133;-81
2021/06/27 07:17:24;;;;;;;9.35;7.00;;;;;;;47.59;18.63;99462.47;5013425;28;20041;-82
2021/06/27 07:19:53;;;;;;;11.15;7.57;;;;;;;47.97;17.87;99462.38;5029449;28;20088;-80
2021/06/27 07:22:26;;;;;;;8.60;7.65;;;;;;;47.89;17.21;99455.44;5017141;28;20042;-80
2021/06/27 07:24:53;;;;;;;7.65;6.95;;;;;;;48.25;17.22;99454.72;5014191;28;20038;-80
2021/06/27 07:27:18;;;;;;;8.57;7.05;;;;;;;48.92;17.21;99474.13;4998365;28;20501;-80
2021/06/27 07:29:44;;;;;;;8.57;7.50;;;;;;;48.50;16.85;99473.25;5012813;28;20045;-81
2021/06/27 07:32:12;;;;;;;8.45;7.70;;;;;;;48.31;16.93;99472.09;5013107;28;20046;-79
2021/06/27 07:34:38;;;;;;;9.70;7.97;;;;;;;48.36;16.84;99469.38;5011621;28;20041;-80
2021/06/27 07:37:05;;;;;;;9.32;7.70;;;;;;;48.29;17.45;99447.56;5011597;28;20041;-79
2021/06/27 07:39:31;;;;;;;9.80;7.10;;;;;;;49.29;16.56;99470.22;5013577;28;20034;-80
2021/06/27 07:41:57;;;;;;;8.70;7.78;;;;;;;49.67;16.57;99467.13;4996188;28;20053;-78
2021/06/27 07:44:23;;;;;;;10.00;9.10;;;;;;;49.56;16.02;99458.03;5010893;28;20045;-76
2021/06/27 07:46:49;;;;;;;9.00;8.05;;;;;;;49.28;16.65;99460.28;5011580;28;20421;-79
2021/06/27 07:49:15;;;;;;;8.98;7.60;;;;;;;48.93;16.20;99464.75;5013445;28;20196;-82
2021/06/27 07:51:41;;;;;;;8.43;7.60;;;;;;;49.04;15.87;99460.06;5033160;28;20487;-79
2021/06/27 07:54:13;;;;;;;9.13;7.70;;;;;;;50.13;15.00;99454.19;5034087;28;20122;-81
2021/06/27 07:56:59;;;;;;;15.02;8.13;;;;;;;51.26;14.09;99463.59;5018260;28;20104;-78
2021/06/27 07:59:25;;;;;;;8.25;7.25;;;;;;;51.77;13.86;99462.16;5032483;28;20091;-81
2021/06/27 08:01:55;;;;;;;8.82;7.75;;;;;;;52.00;13.69;99475.50;4999626;28;20596;-81
2021/06/27 08:04:21;;;;;;;8.73;7.90;;;;;;;51.01;14.58;99434.22;5036723;28;20039;-80
2021/06/27 08:06:47;;;;;;;8.98;8.00;;;;;;;50.93;14.58;99442.03;5019574;28;20041;-81
2021/06/27 08:09:13;;;;;;;8.45;7.47;;;;;;;50.42;14.63;99461.78;5035717;28;20044;-80
2021/06/27 08:11:39;;;;;;;9.65;7.38;;;;;;;49.65;15.41;99469.34;5035829;28;20390;-79
2021/06/27 08:14:05;;;;;;;10.55;7.43;;;;;;;49.69;15.58;99467.66;5025026;28;20080;-81
2021/06/27 08:16:31;;;;;;;8.68;7.78;;;;;;;49.62;15.35;99456.06;4998448;28;20069;-79
2021/06/27 08:19:03;;;;;;;11.43;8.18;;;;;;;49.10;15.50;99453.47;5000229;28;20049;-84
2021/06/27 08:21:29;;;;;;;8.60;7.78;;;;;;;49.15;15.71;99467.22;5000210;28;20390;-82
2021/06/27 08:23:55;;;;;;;7.88;7.28;;;;;;;49.27;15.56;99419.97;5016659;28;20256;-83
2021/06/27 08:26:23;;;;;;;8.23;7.38;;;;;;;50.51;14.76;99440.72;5017380;28;20357;-81
2021/06/27 08:28:50;;;;;;;7.95;7.25;;;;;;;50.72;14.38;99455.22;5031421;28;20616;-80
2021/06/27 08:31:16;;;;;;;9.25;7.55;;;;;;;49.26;15.17;99453.41;5014005;28;20052;-76
2021/06/27 08:33:42;;;;;;;8.25;7.65;;;;;;;47.98;16.30;99444.72;5017038;28;20034;-79
2021/06/27 08:36:08;;;;;;;8.25;7.40;;;;;;;47.81;16.52;99451.28;5016251;28;20037;-76
2021/06/27 08:38:34;;;;;;;8.10;7.40;;;;;;;47.99;16.26;99440.88;5016388;28;20093;-76
2021/06/27 08:41:00;;;;;;;8.27;7.50;;;;;;;49.62;15.28;99446.97;5017205;28;20072;-78
2021/06/27 08:43:32;;;;;;;9.30;7.18;;;;;;;50.72;14.33;99430.31;5015560;28;20042;-79
2021/06/27 08:46:04;;;;;;;9.05;7.80;;;;;;;51.40;14.07;99446.28;5015317;28;20069;-78
2021/06/27 08:48:33;;;;;;;9.85;7.97;;;;;;;50.70;13.73;99454.69;5010195;28;20045;-78
2021/06/27 08:50:59;;;;;;;8.35;7.15;;;;;;;50.18;14.77;99434.84;5019419;28;20076;-76
2021/06/27 08:53:26;;;;;;;9.35;7.30;;;;;;;50.21;14.59;99428.72;5019048;28;20058;-80
2021/06/27 08:56:05;;;;;;;12.23;7.28;;;;;;;49.87;15.10;99413.72;5036000;28;20053;-79
2021/06/27 08:58:42;;;;;;;8.47;7.70;;;;;;;50.75;14.33;99437.19;5033891;28;20037;-80
2021/06/27 09:01:18;;;;;;;8.15;7.35;;;;;;;49.22;15.05;99442.06;5017427;28;20053;-76
2021/06/27 09:03:46;;;;;;;11.52;7.60;;;;;;;49.26;15.08;99436.84;5017179;28;20052;-77
2021/06/27 09:06:32;;;;;;;9.02;8.23;;;;;;;48.68;15.32;99438.81;5034014;28;20045;-76
2021/06/27 09:09:18;;;;;;;10.77;7.80;;;;;;;49.69;15.05;99419.84;5033604;28;20037;-78
2021/06/27 09:12:07;;;;;;;7.97;7.38;;;;;;;50.46;14.15;99436.03;5034396;28;20052;-77
2021/06/27 09:14:40;;;;;;;8.65;7.85;;;;;;;49.80;14.45;99428.94;5018657;28;20030;-78
2021/06/27 09:17:22;;;;;;;9.00;8.25;;;;;;;49.75;14.14;99427.00;4997854;28;20558;-77
2021/06/27 09:19:51;;;;;;;10.30;8.10;;;;;;;48.62;14.53;99428.03;5012112;28;20034;-77
2021/06/27 09:22:22;;;;;;;12.57;8.38;;;;;;;48.01;15.77;99426.81;5012543;28;20041;-75
2021/06/27 09:24:48;;;;;;;9.00;8.07;;;;;;;47.76;15.70;99422.88;5014253;28;20422;-74
2021/06/27 09:27:24;;;;;;;8.18;7.32;;;;;;;48.42;15.97;99415.91;5014026;28;20042;-74
2021/06/27 09:29:55;;;;;;;9.02;7.95;;;;;;;48.93;15.39;99420.59;5013754;28;20050;-74
2021/06/27 09:32:24;;;;;;;9.13;8.20;;;;;;;48.15;15.42;99416.94;5012974;28;20178;-75
2021/06/27 09:34:51;;;;;;;8.30;7.47;;;;;;;48.49;15.33;99419.19;5012234;28;20092;-79
2021/06/27 09:37:28;;;;;;;10.30;8.00;;;;;;;48.91;15.08;99421.97;5014523;28;20366;-77
2021/06/27 09:40:02;;;;;;;9.20;6.80;;;;;;;50.00;14.31;99400.38;4996281;28;20145;-81
2021/06/27 09:42:30;;;;;;;8.30;7.50;;;;;;;51.58;13.25;99392.03;5013943;28;20037;-76
2021/06/27 09:45:08;;;;;;;8.25;7.53;;;;;;;52.24;12.90;99400.53;5013792;28;20559;-76
2021/06/27 09:47:35;;;;;;;9.98;7.60;;;;;;;52.11;13.22;99402.94;5030602;28;20088;-77
2021/06/27 09:50:30;;;;;;;12.00;8.30;;;;;;;50.81;12.97;99407.50;5015491;28;20085;-78
2021/06/27 09:52:56;;;;;;;8.20;7.40;;;;;;;49.10;14.46;99398.25;5032198;28;20107;-78
2021/06/27 09:55:22;;;;;;;11.82;8.35;;;;;;;49.11;14.70;99407.34;5033465;28;20049;-77
2021/06/27 09:57:48;;;;;;;9.10;8.20;;;;;;;49.17;14.80;99388.81;5031854;28;20121;-78
2021/06/27 10:00:23;;;;;;;11.30;8.40;;;;;;;50.05;13.93;99408.63;5031729;28;20045;-77
2021/06/27 10:03:05;;;;;;;9.25;7.82;;;;;;;48.62;14.96;99394.94;5031992;28;20079;-78
2021/06/27 10:05:33;;;;;;;9.35;8.38;;;;;;;48.55;14.78;99387.75;5032072;28;20477;-78
2021/06/27 10:08:02;;;;;;;8.48;7.68;;;;;;;48.14;15.30;99395.16;5031367;28;20041;-77
2021/06/27 10:10:28;;;;;;;8.38;7.28;;;;;;;47.70;15.54;99388.13;5015340;28;20030;-78
2021/06/27 10:12:55;;;;;;;8.02;7.20;;;;;;;48.31;14.74;99386.63;4998570;28;20049;-77
2021/06/27 10:15:21;;;;;;;10.57;8.13;;;;;;;48.20;14.75;99391.31;4980062;28;20363;-76
2021/06/27 10:17:47;;;;;;;12.40;9.07;;;;;;;46.98;15.49;99380.31;5012955;28;20099;-77
2021/06/27 10:20:15;;;;;;;9.35;8.45;;;;;;;46.45;16.96;99390.09;5012142;28;20042;-77
2021/06/27 10:22:42;;;;;;;20.42;8.40;;;;;;;46.34;16.95;99382.78;5012485;28;20050;-76
2021/06/27 10:25:13;;;;;;;10.02;8.98;;;;;;;46.55;17.12;99380.25;5013066;28;20120;-78
2021/06/27 10:27:40;;;;;;;9.57;8.07;;;;;;;45.18;17.66;99380.00;5032391;28;20067;-78
2021/06/27 10:30:08;;;;;;;10.25;8.75;;;;;;;43.83;18.93;99388.63;5031284;28;20048;-77
2021/06/27 10:32:42;;;;;;;9.80;8.13;;;;;;;42.27;21.21;99383.31;5014862;28;20419;-79
2021/06/27 10:35:09;;;;;;;9.88;8.88;;;;;;;41.77;21.56;99373.44;5032461;28;20041;-77
2021/06/27 10:37:38;;;;;;;9.95;9.00;;;;;;;41.28;21.84;99374.19;5032891;28;20041;-76
2021/06/27 10:40:06;;;;;;;9.75;8.75;;;;;;;40.19;23.43;99373.31;5032476;28;20048;-76
2021/06/27 10:42:47;;;;;;;16.20;8.90;;;;;;;39.65;23.79;99378.16;5047230;28;20052;-78
2021/06/27 10:45:18;;;;;;;10.10;8.82;;;;;;;39.09;25.04;99369.44;5033679;28;20076;-77
2021/06/27 10:47:45;;;;;;;11.68;9.18;;;;;;;38.48;25.62;99362.34;5031301;28;20046;-76
2021/06/27 10:50:13;;;;;;;11.63;9.55;;;;;;;37.96;26.16;99362.81;5038447;28;20596;-79
2021/06/27 10:52:51;;;;;;;11.20;9.05;;;;;;;37.60;26.38;99367.44;5038966;28;20823;-76
2021/06/27 10:55:21;;;;;;;10.20;8.68;;;;;;;37.31;27.05;99368.50;5023542;28;20049;-79
2021/06/27 10:58:08;;;;;;;10.50;8.57;;;;;;;37.37;26.85;99360.38;5034132;28;20053;-77
2021/06/27 11:00:56;;;;;;;9.65;8.68;;;;;;;37.35;26.42;99358.94;5020428;28;20084;-78
2021/06/27 11:03:37;;;;;;;9.90;8.10;;;;;;;37.09;26.92;99352.28;5020080;28;20050;-75
2021/06/27 11:06:26;;;;;;;9.73;8.68;;;;;;;36.84;27.33;99358.13;5016150;28;20046;-78
2021/06/27 11:08:57;;;;;;;14.82;9.27;;;;;;;36.50;28.06;99354.31;5012396;28;20045;-77
2021/06/27 11:11:25;;;;;;;12.00;9.00;;;;;;;36.40;28.25;99346.47;5029714;28;20045;-78
2021/06/27 11:14:17;;;;;;;10.48;9.38;;;;;;;36.18;27.73;99348.31;5022979;28;20046;-78
2021/06/27 11:16:55;;;;;;;9.82;8.93;;;;;;;35.79;28.56;99354.91;5011436;28;20145;-77
2021/06/27 11:19:26;;;;;;;9.95;8.85;;;;;;;35.47;28.86;99343.47;5015481;28;20074;-78
2021/06/27 11:22:18;;;;;;;12.65;9.15;;;;;;;35.31;29.43;99353.41;5032208;28;20604;-75
2021/06/27 11:24:45;;;;;;;11.35;9.32;;;;;;;35.24;29.67;99342.50;5014003;28;20033;-77
2021/06/27 11:27:30;;;;;;;10.10;9.15;;;;;;;35.26;29.83;99340.47;5031561;28;20060;-76
2021/06/27 11:29:57;;;;;;;12.68;7.85;;;;;;;35.16;29.76;99320.16;5031697;28;20044;-76